sensor_id;sensor_type;location;lat;lon;timestamp;P1;durP1;ratioP1;P2;durP2;ratioP2
19905;SDS011;10115;50.906;4.438;2022-08-24T00:00:09;2.60;;;2.50;;
19905;SDS011;10115;50.906;4.438;2022-08-24T00:02:37;3.03;;;2.83;;
19905;SDS011;10115;50.906;4.438;2022-08-24T00:05:03;4.53;;;3.50;;
19905;SDS011;10115;50.906;4.438;2022-08-24T00:07:30;8.43;;;3.10;;
19905;SDS011;10115;50.906;4.438;2022-08-24T00:09:55;3.03;;;2.57;;
19905;SDS011;10115;50.906;4.438;2022-08-24T00:12:22;4.47;;;3.50;;
19905;SDS011;10115;50.906;4.438;2022-08-24T00:14:48;4.37;;;2.60;;
19905;SDS011;10115;50.906;4.438;2022-08-24T00:17:14;3.13;;;2.83;;
19905;SDS011;10115;50.906;4.438;2022-08-24T00:19:41;6.07;;;3.13;;
19905;SDS011;10115;50.906;4.438;2022-08-24T00:22:06;2.87;;;2.67;;
19905;SDS011;10115;50.906;4.438;2022-08-24T00:24:33;3.40;;;2.77;;
19905;SDS011;10115;50.906;4.438;2022-08-24T00:26:59;7.83;;;3.43;;
19905;SDS011;10115;50.906;4.438;2022-08-24T00:29:24;4.97;;;2.93;;
19905;SDS011;10115;50.906;4.438;2022-08-24T00:31:50;3.20;;;2.90;;
19905;SDS011;10115;50.906;4.438;2022-08-24T00:34:16;3.00;;;2.80;;
19905;SDS011;10115;50.906;4.438;2022-08-24T00:36:42;3.13;;;2.90;;
19905;SDS011;10115;50.906;4.438;2022-08-24T00:39:09;4.30;;;3.07;;
19905;SDS011;10115;50.906;4.438;2022-08-24T00:41:38;2.43;;;2.20;;
19905;SDS011;10115;50.906;4.438;2022-08-24T00:44:08;3.33;;;2.50;;
19905;SDS011;10115;50.906;4.438;2022-08-24T00:49:17;2.70;;;2.53;;
19905;SDS011;10115;50.906;4.438;2022-08-24T00:54:28;5.80;;;3.00;;
19905;SDS011;10115;50.906;4.438;2022-08-24T00:56:57;3.27;;;2.97;;
19905;SDS011;10115;50.906;4.438;2022-08-24T00:59:27;2.63;;;2.50;;
19905;SDS011;10115;50.906;4.438;2022-08-24T01:01:58;2.93;;;2.73;;
19905;SDS011;10115;50.906;4.438;2022-08-24T01:04:34;3.00;;;2.80;;
19905;SDS011;10115;50.906;4.438;2022-08-24T01:07:04;3.40;;;3.10;;
19905;SDS011;10115;50.906;4.438;2022-08-24T01:09:30;2.67;;;2.47;;
19905;SDS011;10115;50.906;4.438;2022-08-24T01:11:56;2.87;;;2.63;;
19905;SDS011;10115;50.906;4.438;2022-08-24T01:14:23;2.60;;;2.40;;
19905;SDS011;10115;50.906;4.438;2022-08-24T01:16:48;2.80;;;2.60;;
19905;SDS011;10115;50.906;4.438;2022-08-24T01:24:40;2.87;;;2.67;;
19905;SDS011;10115;50.906;4.438;2022-08-24T01:27:08;2.70;;;2.57;;
19905;SDS011;10115;50.906;4.438;2022-08-24T01:29:35;2.60;;;2.50;;
19905;SDS011;10115;50.906;4.438;2022-08-24T01:32:02;2.73;;;2.50;;
19905;SDS011;10115;50.906;4.438;2022-08-24T01:34:29;2.60;;;2.50;;
19905;SDS011;10115;50.906;4.438;2022-08-24T01:36:55;3.60;;;2.97;;
19905;SDS011;10115;50.906;4.438;2022-08-24T01:39:29;2.43;;;2.23;;
19905;SDS011;10115;50.906;4.438;2022-08-24T01:41:58;2.40;;;2.27;;
19905;SDS011;10115;50.906;4.438;2022-08-24T01:44:25;2.73;;;2.53;;
19905;SDS011;10115;50.906;4.438;2022-08-24T01:46:53;2.90;;;2.70;;
19905;SDS011;10115;50.906;4.438;2022-08-24T01:49:22;3.03;;;2.83;;
19905;SDS011;10115;50.906;4.438;2022-08-24T01:51:50;2.80;;;2.60;;
19905;SDS011;10115;50.906;4.438;2022-08-24T01:54:16;3.00;;;2.80;;
19905;SDS011;10115;50.906;4.438;2022-08-24T01:56:42;3.40;;;3.10;;
19905;SDS011;10115;50.906;4.438;2022-08-24T01:59:10;2.90;;;2.70;;
19905;SDS011;10115;50.906;4.438;2022-08-24T02:01:37;3.17;;;2.93;;
19905;SDS011;10115;50.906;4.438;2022-08-24T02:04:05;4.30;;;2.97;;
19905;SDS011;10115;50.906;4.438;2022-08-24T02:06:31;2.50;;;2.40;;
19905;SDS011;10115;50.906;4.438;2022-08-24T02:09:00;3.40;;;3.10;;
19905;SDS011;10115;50.906;4.438;2022-08-24T02:11:27;3.50;;;3.20;;
19905;SDS011;10115;50.906;4.438;2022-08-24T02:13:53;3.83;;;3.47;;
19905;SDS011;10115;50.906;4.438;2022-08-24T02:16:18;2.77;;;2.60;;
19905;SDS011;10115;50.906;4.438;2022-08-24T02:18:44;3.13;;;2.50;;
19905;SDS011;10115;50.906;4.438;2022-08-24T02:21:11;5.90;;;2.77;;
19905;SDS011;10115;50.906;4.438;2022-08-24T02:23:38;3.47;;;3.17;;
19905;SDS011;10115;50.906;4.438;2022-08-24T02:26:05;2.70;;;2.50;;
19905;SDS011;10115;50.906;4.438;2022-08-24T02:28:33;3.23;;;2.93;;
19905;SDS011;10115;50.906;4.438;2022-08-24T02:30:59;3.30;;;3.00;;
19905;SDS011;10115;50.906;4.438;2022-08-24T02:33:26;2.70;;;2.57;;
19905;SDS011;10115;50.906;4.438;2022-08-24T02:35:52;3.40;;;3.13;;
19905;SDS011;10115;50.906;4.438;2022-08-24T02:38:19;4.70;;;3.60;;
19905;SDS011;10115;50.906;4.438;2022-08-24T02:40:45;2.97;;;2.63;;
19905;SDS011;10115;50.906;4.438;2022-08-24T02:43:11;3.77;;;3.40;;
19905;SDS011;10115;50.906;4.438;2022-08-24T02:45:38;3.83;;;3.57;;
19905;SDS011;10115;50.906;4.438;2022-08-24T02:48:05;2.73;;;2.53;;
19905;SDS011;10115;50.906;4.438;2022-08-24T02:50:31;2.87;;;2.70;;
19905;SDS011;10115;50.906;4.438;2022-08-24T02:52:56;3.13;;;2.93;;
19905;SDS011;10115;50.906;4.438;2022-08-24T02:55:22;4.20;;;3.80;;
19905;SDS011;10115;50.906;4.438;2022-08-24T02:57:48;6.77;;;2.97;;
19905;SDS011;10115;50.906;4.438;2022-08-24T03:00:16;3.57;;;3.27;;
19905;SDS011;10115;50.906;4.438;2022-08-24T03:02:43;4.43;;;3.37;;
19905;SDS011;10115;50.906;4.438;2022-08-24T03:05:09;3.20;;;2.90;;
19905;SDS011;10115;50.906;4.438;2022-08-24T03:07:35;2.83;;;2.63;;
19905;SDS011;10115;50.906;4.438;2022-08-24T03:10:02;4.53;;;3.43;;
19905;SDS011;10115;50.906;4.438;2022-08-24T03:12:29;3.30;;;3.00;;
19905;SDS011;10115;50.906;4.438;2022-08-24T03:14:55;3.20;;;3.00;;
19905;SDS011;10115;50.906;4.438;2022-08-24T03:17:21;2.70;;;2.47;;
19905;SDS011;10115;50.906;4.438;2022-08-24T03:19:48;2.97;;;2.77;;
19905;SDS011;10115;50.906;4.438;2022-08-24T03:22:14;2.90;;;2.70;;
19905;SDS011;10115;50.906;4.438;2022-08-24T03:24:40;4.00;;;3.63;;
19905;SDS011;10115;50.906;4.438;2022-08-24T03:27:05;3.57;;;3.30;;
19905;SDS011;10115;50.906;4.438;2022-08-24T03:29:31;3.90;;;3.03;;
19905;SDS011;10115;50.906;4.438;2022-08-24T03:31:59;3.33;;;3.13;;
19905;SDS011;10115;50.906;4.438;2022-08-24T03:34:24;3.10;;;2.90;;
19905;SDS011;10115;50.906;4.438;2022-08-24T03:36:50;5.07;;;3.40;;
19905;SDS011;10115;50.906;4.438;2022-08-24T03:39:16;3.40;;;3.03;;
19905;SDS011;10115;50.906;4.438;2022-08-24T03:41:42;4.83;;;3.67;;
19905;SDS011;10115;50.906;4.438;2022-08-24T03:44:07;3.70;;;3.40;;
19905;SDS011;10115;50.906;4.438;2022-08-24T03:46:35;4.07;;;3.43;;
19905;SDS011;10115;50.906;4.438;2022-08-24T03:49:02;4.90;;;3.47;;
19905;SDS011;10115;50.906;4.438;2022-08-24T03:51:29;3.73;;;3.43;;
19905;SDS011;10115;50.906;4.438;2022-08-24T03:53:56;3.60;;;3.30;;
19905;SDS011;10115;50.906;4.438;2022-08-24T03:56:24;3.67;;;3.23;;
19905;SDS011;10115;50.906;4.438;2022-08-24T03:58:50;3.30;;;3.10;;
19905;SDS011;10115;50.906;4.438;2022-08-24T04:01:16;3.67;;;3.33;;
19905;SDS011;10115;50.906;4.438;2022-08-24T04:03:43;3.43;;;3.13;;
19905;SDS011;10115;50.906;4.438;2022-08-24T04:06:10;4.70;;;3.00;;
19905;SDS011;10115;50.906;4.438;2022-08-24T04:08:36;3.60;;;3.30;;
19905;SDS011;10115;50.906;4.438;2022-08-24T04:11:02;3.90;;;3.57;;
19905;SDS011;10115;50.906;4.438;2022-08-24T04:13:29;3.83;;;3.53;;
19905;SDS011;10115;50.906;4.438;2022-08-24T04:15:56;7.17;;;3.60;;
19905;SDS011;10115;50.906;4.438;2022-08-24T04:18:23;3.70;;;3.47;;
19905;SDS011;10115;50.906;4.438;2022-08-24T04:20:48;3.37;;;3.07;;
19905;SDS011;10115;50.906;4.438;2022-08-24T04:23:15;7.40;;;3.63;;
19905;SDS011;10115;50.906;4.438;2022-08-24T04:25:45;3.37;;;3.17;;
19905;SDS011;10115;50.906;4.438;2022-08-24T04:28:13;3.83;;;3.43;;
19905;SDS011;10115;50.906;4.438;2022-08-24T04:30:42;4.23;;;3.37;;
19905;SDS011;10115;50.906;4.438;2022-08-24T04:33:10;4.40;;;3.60;;
19905;SDS011;10115;50.906;4.438;2022-08-24T04:35:40;3.80;;;3.40;;
19905;SDS011;10115;50.906;4.438;2022-08-24T04:38:10;3.50;;;3.30;;
19905;SDS011;10115;50.906;4.438;2022-08-24T04:40:39;5.20;;;3.33;;
19905;SDS011;10115;50.906;4.438;2022-08-24T04:43:06;7.87;;;4.03;;
19905;SDS011;10115;50.906;4.438;2022-08-24T04:45:36;6.87;;;4.10;;
19905;SDS011;10115;50.906;4.438;2022-08-24T04:48:03;4.07;;;3.43;;
19905;SDS011;10115;50.906;4.438;2022-08-24T04:50:29;5.47;;;3.77;;
19905;SDS011;10115;50.906;4.438;2022-08-24T04:52:58;4.30;;;3.93;;
19905;SDS011;10115;50.906;4.438;2022-08-24T04:55:24;3.63;;;3.30;;
19905;SDS011;10115;50.906;4.438;2022-08-24T04:57:50;6.57;;;3.40;;
19905;SDS011;10115;50.906;4.438;2022-08-24T05:00:15;5.50;;;3.97;;
19905;SDS011;10115;50.906;4.438;2022-08-24T05:02:41;3.93;;;3.57;;
19905;SDS011;10115;50.906;4.438;2022-08-24T05:05:07;6.30;;;4.23;;
19905;SDS011;10115;50.906;4.438;2022-08-24T05:07:34;4.53;;;3.97;;
19905;SDS011;10115;50.906;4.438;2022-08-24T05:10:03;8.70;;;3.77;;
19905;SDS011;10115;50.906;4.438;2022-08-24T05:12:30;4.47;;;3.97;;
19905;SDS011;10115;50.906;4.438;2022-08-24T05:14:56;6.67;;;4.43;;
19905;SDS011;10115;50.906;4.438;2022-08-24T05:17:23;3.70;;;3.40;;
19905;SDS011;10115;50.906;4.438;2022-08-24T05:19:49;3.97;;;3.67;;
19905;SDS011;10115;50.906;4.438;2022-08-24T05:22:15;5.83;;;3.40;;
19905;SDS011;10115;50.906;4.438;2022-08-24T05:24:41;4.67;;;4.23;;
19905;SDS011;10115;50.906;4.438;2022-08-24T05:27:07;7.20;;;4.40;;
19905;SDS011;10115;50.906;4.438;2022-08-24T05:29:33;4.23;;;3.93;;
19905;SDS011;10115;50.906;4.438;2022-08-24T05:31:59;3.70;;;3.47;;
19905;SDS011;10115;50.906;4.438;2022-08-24T05:34:25;4.57;;;4.00;;
19905;SDS011;10115;50.906;4.438;2022-08-24T05:36:51;4.97;;;4.23;;
19905;SDS011;10115;50.906;4.438;2022-08-24T05:39:17;5.70;;;4.57;;
19905;SDS011;10115;50.906;4.438;2022-08-24T05:41:43;7.10;;;4.43;;
19905;SDS011;10115;50.906;4.438;2022-08-24T05:44:11;6.83;;;4.27;;
19905;SDS011;10115;50.906;4.438;2022-08-24T05:46:38;5.43;;;4.10;;
19905;SDS011;10115;50.906;4.438;2022-08-24T05:49:04;4.87;;;4.47;;
19905;SDS011;10115;50.906;4.438;2022-08-24T05:51:30;5.67;;;4.50;;
19905;SDS011;10115;50.906;4.438;2022-08-24T05:53:56;14.90;;;4.77;;
19905;SDS011;10115;50.906;4.438;2022-08-24T05:56:23;11.60;;;5.03;;
19905;SDS011;10115;50.906;4.438;2022-08-24T05:58:49;10.57;;;4.40;;
19905;SDS011;10115;50.906;4.438;2022-08-24T06:01:19;13.80;;;4.77;;
19905;SDS011;10115;50.906;4.438;2022-08-24T06:03:47;6.23;;;4.67;;
19905;SDS011;10115;50.906;4.438;2022-08-24T06:06:15;5.40;;;4.90;;
19905;SDS011;10115;50.906;4.438;2022-08-24T06:08:42;10.80;;;6.60;;
19905;SDS011;10115;50.906;4.438;2022-08-24T06:11:45;16.57;;;7.07;;
19905;SDS011;10115;50.906;4.438;2022-08-24T06:14:09;11.53;;;5.93;;
19905;SDS011;10115;50.906;4.438;2022-08-24T06:16:38;13.27;;;5.63;;
19905;SDS011;10115;50.906;4.438;2022-08-24T06:19:05;7.97;;;5.37;;
19905;SDS011;10115;50.906;4.438;2022-08-24T06:21:32;10.07;;;6.30;;
19905;SDS011;10115;50.906;4.438;2022-08-24T06:23:58;15.40;;;6.23;;
19905;SDS011;10115;50.906;4.438;2022-08-24T06:26:24;7.83;;;5.80;;
19905;SDS011;10115;50.906;4.438;2022-08-24T06:29:09;15.40;;;6.53;;
19905;SDS011;10115;50.906;4.438;2022-08-24T06:31:36;7.90;;;5.43;;
19905;SDS011;10115;50.906;4.438;2022-08-24T06:34:05;7.03;;;6.30;;
19905;SDS011;10115;50.906;4.438;2022-08-24T06:36:31;16.97;;;7.13;;
19905;SDS011;10115;50.906;4.438;2022-08-24T06:38:57;13.23;;;7.83;;
19905;SDS011;10115;50.906;4.438;2022-08-24T06:41:23;13.53;;;7.27;;
19905;SDS011;10115;50.906;4.438;2022-08-24T06:43:49;13.13;;;6.93;;
19905;SDS011;10115;50.906;4.438;2022-08-24T06:46:16;19.10;;;7.77;;
19905;SDS011;10115;50.906;4.438;2022-08-24T06:48:42;12.40;;;8.57;;
19905;SDS011;10115;50.906;4.438;2022-08-24T06:51:09;15.73;;;10.33;;
19905;SDS011;10115;50.906;4.438;2022-08-24T06:53:36;20.90;;;11.37;;
19905;SDS011;10115;50.906;4.438;2022-08-24T06:56:02;12.20;;;9.07;;
19905;SDS011;10115;50.906;4.438;2022-08-24T06:58:28;15.13;;;9.53;;
19905;SDS011;10115;50.906;4.438;2022-08-24T07:00:54;14.87;;;10.30;;
19905;SDS011;10115;50.906;4.438;2022-08-24T07:03:20;19.50;;;10.60;;
19905;SDS011;10115;50.906;4.438;2022-08-24T07:05:54;21.60;;;10.60;;
19905;SDS011;10115;50.906;4.438;2022-08-24T07:08:22;16.97;;;10.00;;
19905;SDS011;10115;50.906;4.438;2022-08-24T07:10:48;16.80;;;10.43;;
19905;SDS011;10115;50.906;4.438;2022-08-24T07:13:15;16.00;;;9.90;;
19905;SDS011;10115;50.906;4.438;2022-08-24T07:15:41;15.10;;;10.17;;
19905;SDS011;10115;50.906;4.438;2022-08-24T07:18:09;19.60;;;9.23;;
19905;SDS011;10115;50.906;4.438;2022-08-24T07:20:36;13.43;;;9.98;;
19905;SDS011;10115;50.906;4.438;2022-08-24T07:23:03;14.97;;;9.33;;
19905;SDS011;10115;50.906;4.438;2022-08-24T07:25:30;15.03;;;10.03;;
19905;SDS011;10115;50.906;4.438;2022-08-24T07:27:57;11.50;;;8.13;;
19905;SDS011;10115;50.906;4.438;2022-08-24T07:30:24;13.70;;;9.20;;
19905;SDS011;10115;50.906;4.438;2022-08-24T07:32:51;16.17;;;10.07;;
19905;SDS011;10115;50.906;4.438;2022-08-24T07:35:17;15.67;;;9.27;;
19905;SDS011;10115;50.906;4.438;2022-08-24T07:37:43;14.73;;;10.30;;
19905;SDS011;10115;50.906;4.438;2022-08-24T07:40:08;14.20;;;9.10;;
19905;SDS011;10115;50.906;4.438;2022-08-24T07:42:34;14.93;;;8.90;;
19905;SDS011;10115;50.906;4.438;2022-08-24T07:45:00;12.57;;;9.27;;
19905;SDS011;10115;50.906;4.438;2022-08-24T07:47:26;17.38;;;9.23;;
19905;SDS011;10115;50.906;4.438;2022-08-24T07:49:52;14.90;;;9.02;;
19905;SDS011;10115;50.906;4.438;2022-08-24T07:52:17;13.63;;;9.50;;
19905;SDS011;10115;50.906;4.438;2022-08-24T07:54:43;13.45;;;8.98;;
19905;SDS011;10115;50.906;4.438;2022-08-24T07:57:09;11.77;;;8.95;;
19905;SDS011;10115;50.906;4.438;2022-08-24T07:59:35;10.68;;;7.78;;
19905;SDS011;10115;50.906;4.438;2022-08-24T08:02:01;9.23;;;8.00;;
19905;SDS011;10115;50.906;4.438;2022-08-24T08:04:27;8.02;;;6.72;;
19905;SDS011;10115;50.906;4.438;2022-08-24T08:06:52;11.05;;;7.85;;
19905;SDS011;10115;50.906;4.438;2022-08-24T08:09:18;9.68;;;6.53;;
19905;SDS011;10115;50.906;4.438;2022-08-24T08:11:45;9.88;;;6.53;;
19905;SDS011;10115;50.906;4.438;2022-08-24T08:14:11;8.65;;;7.05;;
19905;SDS011;10115;50.906;4.438;2022-08-24T08:16:38;9.15;;;6.47;;
19905;SDS011;10115;50.906;4.438;2022-08-24T08:19:05;10.50;;;5.60;;
19905;SDS011;10115;50.906;4.438;2022-08-24T08:21:31;9.32;;;6.50;;
19905;SDS011;10115;50.906;4.438;2022-08-24T08:24:15;11.95;;;6.35;;
19905;SDS011;10115;50.906;4.438;2022-08-24T08:26:46;7.45;;;5.65;;
19905;SDS011;10115;50.906;4.438;2022-08-24T08:29:16;10.85;;;5.22;;
19905;SDS011;10115;50.906;4.438;2022-08-24T08:31:43;8.15;;;4.53;;
19905;SDS011;10115;50.906;4.438;2022-08-24T08:34:10;7.55;;;4.72;;
19905;SDS011;10115;50.906;4.438;2022-08-24T08:36:37;6.32;;;4.82;;
19905;SDS011;10115;50.906;4.438;2022-08-24T08:39:05;7.60;;;5.15;;
19905;SDS011;10115;50.906;4.438;2022-08-24T08:47:16;12.23;;;5.22;;
19905;SDS011;10115;50.906;4.438;2022-08-24T08:59:06;5.53;;;5.03;;
19905;SDS011;10115;50.906;4.438;2022-08-24T09:09:44;7.43;;;5.25;;
19905;SDS011;10115;50.906;4.438;2022-08-24T09:12:30;9.25;;;5.40;;
19905;SDS011;10115;50.906;4.438;2022-08-24T09:18:08;9.32;;;5.53;;
19905;SDS011;10115;50.906;4.438;2022-08-24T09:20:49;6.32;;;5.13;;
19905;SDS011;10115;50.906;4.438;2022-08-24T09:26:31;11.35;;;6.00;;
19905;SDS011;10115;50.906;4.438;2022-08-24T09:31:44;6.53;;;4.95;;
19905;SDS011;10115;50.906;4.438;2022-08-24T09:54:27;6.78;;;5.65;;
19905;SDS011;10115;50.906;4.438;2022-08-24T10:05:02;5.50;;;4.13;;
19905;SDS011;10115;50.906;4.438;2022-08-24T10:08:00;7.82;;;3.75;;
19905;SDS011;10115;50.906;4.438;2022-08-24T10:16:36;4.00;;;3.00;;
19905;SDS011;10115;50.906;4.438;2022-08-24T10:25:19;3.10;;;2.90;;
19905;SDS011;10115;50.906;4.438;2022-08-24T10:28:00;3.38;;;2.92;;
19905;SDS011;10115;50.906;4.438;2022-08-24T10:31:07;3.05;;;2.70;;
19905;SDS011;10115;50.906;4.438;2022-08-24T10:53:50;2.83;;;2.63;;
19905;SDS011;10115;50.906;4.438;2022-08-24T10:56:18;6.22;;;2.13;;
19905;SDS011;10115;50.906;4.438;2022-08-24T10:58:51;2.70;;;2.45;;
19905;SDS011;10115;50.906;4.438;2022-08-24T11:01:34;3.97;;;2.78;;
19905;SDS011;10115;50.906;4.438;2022-08-24T11:11:31;2.90;;;2.70;;
19905;SDS011;10115;50.906;4.438;2022-08-24T11:14:21;5.05;;;2.97;;
19905;SDS011;10115;50.906;4.438;2022-08-24T11:16:53;4.10;;;2.50;;
19905;SDS011;10115;50.906;4.438;2022-08-24T11:19:47;2.65;;;2.42;;
19905;SDS011;10115;50.906;4.438;2022-08-24T11:22:26;1.98;;;1.88;;
19905;SDS011;10115;50.906;4.438;2022-08-24T11:25:16;6.65;;;2.25;;
19905;SDS011;10115;50.906;4.438;2022-08-24T11:27:49;4.50;;;2.53;;
19905;SDS011;10115;50.906;4.438;2022-08-24T11:30:25;4.47;;;2.60;;
19905;SDS011;10115;50.906;4.438;2022-08-24T11:32:59;2.38;;;2.17;;
19905;SDS011;10115;50.906;4.438;2022-08-24T11:38:02;2.70;;;2.50;;
19905;SDS011;10115;50.906;4.438;2022-08-24T11:40:58;3.50;;;2.58;;
19905;SDS011;10115;50.906;4.438;2022-08-24T11:46:42;4.38;;;2.70;;
19905;SDS011;10115;50.906;4.438;2022-08-24T11:49:27;6.38;;;2.92;;
19905;SDS011;10115;50.906;4.438;2022-08-24T11:55:11;5.00;;;2.70;;
19905;SDS011;10115;50.906;4.438;2022-08-24T11:57:46;4.50;;;2.05;;
19905;SDS011;10115;50.906;4.438;2022-08-24T12:00:27;2.33;;;2.13;;
19905;SDS011;10115;50.906;4.438;2022-08-24T12:08:27;10.52;;;2.33;;
19905;SDS011;10115;50.906;4.438;2022-08-24T12:11:22;1.90;;;1.80;;
19905;SDS011;10115;50.906;4.438;2022-08-24T12:16:37;1.55;;;1.55;;
19905;SDS011;10115;50.906;4.438;2022-08-24T12:19:44;2.00;;;1.90;;
19905;SDS011;10115;50.906;4.438;2022-08-24T12:22:15;1.85;;;1.75;;
19905;SDS011;10115;50.906;4.438;2022-08-24T12:24:54;1.80;;;1.70;;
19905;SDS011;10115;50.906;4.438;2022-08-24T12:27:33;1.73;;;1.65;;
19905;SDS011;10115;50.906;4.438;2022-08-24T12:30:10;1.83;;;1.73;;
19905;SDS011;10115;50.906;4.438;2022-08-24T12:32:40;1.70;;;1.60;;
19905;SDS011;10115;50.906;4.438;2022-08-24T12:38:18;2.00;;;1.90;;
19905;SDS011;10115;50.906;4.438;2022-08-24T12:46:20;1.70;;;1.60;;
19905;SDS011;10115;50.906;4.438;2022-08-24T12:48:50;3.30;;;1.42;;
19905;SDS011;10115;50.906;4.438;2022-08-24T12:51:27;3.00;;;1.50;;
19905;SDS011;10115;50.906;4.438;2022-08-24T13:00:25;1.80;;;1.70;;
19905;SDS011;10115;50.906;4.438;2022-08-24T13:02:58;1.88;;;1.77;;
19905;SDS011;10115;50.906;4.438;2022-08-24T13:05:37;2.13;;;1.70;;
19905;SDS011;10115;50.906;4.438;2022-08-24T13:08:21;1.65;;;1.48;;
19905;SDS011;10115;50.906;4.438;2022-08-24T13:11:04;1.80;;;1.70;;
19905;SDS011;10115;50.906;4.438;2022-08-24T13:13:45;1.60;;;1.60;;
19905;SDS011;10115;50.906;4.438;2022-08-24T13:19:30;7.53;;;1.75;;
19905;SDS011;10115;50.906;4.438;2022-08-24T13:32:29;1.13;;;1.13;;
19905;SDS011;10115;50.906;4.438;2022-08-24T13:40:50;2.00;;;1.90;;
19905;SDS011;10115;50.906;4.438;2022-08-24T13:43:32;1.60;;;1.50;;
19905;SDS011;10115;50.906;4.438;2022-08-24T13:46:08;1.65;;;1.40;;
19905;SDS011;10115;50.906;4.438;2022-08-24T13:51:28;2.08;;;1.55;;
19905;SDS011;10115;50.906;4.438;2022-08-24T14:19:11;1.60;;;1.50;;
19905;SDS011;10115;50.906;4.438;2022-08-24T14:24:39;4.47;;;1.50;;
19905;SDS011;10115;50.906;4.438;2022-08-24T14:30:35;2.10;;;1.98;;
19905;SDS011;10115;50.906;4.438;2022-08-24T14:33:04;1.83;;;1.73;;
19905;SDS011;10115;50.906;4.438;2022-08-24T14:41:18;1.60;;;1.50;;
19905;SDS011;10115;50.906;4.438;2022-08-24T14:46:40;1.80;;;1.70;;
19905;SDS011;10115;50.906;4.438;2022-08-24T14:49:46;1.60;;;1.50;;
19905;SDS011;10115;50.906;4.438;2022-08-24T14:57:49;1.77;;;1.67;;
19905;SDS011;10115;50.906;4.438;2022-08-24T15:03:21;3.25;;;1.85;;
19905;SDS011;10115;50.906;4.438;2022-08-24T15:06:39;6.35;;;2.20;;
19905;SDS011;10115;50.906;4.438;2022-08-24T15:11:42;1.85;;;1.65;;
19905;SDS011;10115;50.906;4.438;2022-08-24T15:14:25;2.00;;;1.90;;
19905;SDS011;10115;50.906;4.438;2022-08-24T15:17:00;3.45;;;2.10;;
19905;SDS011;10115;50.906;4.438;2022-08-24T15:19:34;2.88;;;2.10;;
19905;SDS011;10115;50.906;4.438;2022-08-24T15:22:36;2.00;;;1.90;;
19905;SDS011;10115;50.906;4.438;2022-08-24T15:25:09;1.63;;;1.55;;
19905;SDS011;10115;50.906;4.438;2022-08-24T15:27:55;2.50;;;2.30;;
19905;SDS011;10115;50.906;4.438;2022-08-24T15:33:04;1.60;;;1.50;;
19905;SDS011;10115;50.906;4.438;2022-08-24T15:35:33;1.88;;;1.77;;
19905;SDS011;10115;50.906;4.438;2022-08-24T15:38:21;2.83;;;2.00;;
19905;SDS011;10115;50.906;4.438;2022-08-24T15:40:50;2.08;;;1.98;;
19905;SDS011;10115;50.906;4.438;2022-08-24T15:44:22;2.33;;;2.05;;
19905;SDS011;10115;50.906;4.438;2022-08-24T15:46:32;1.80;;;1.70;;
19905;SDS011;10115;50.906;4.438;2022-08-24T15:49:21;2.65;;;1.92;;
19905;SDS011;10115;50.906;4.438;2022-08-24T15:56:49;2.13;;;1.92;;
19905;SDS011;10115;50.906;4.438;2022-08-24T15:59:43;1.80;;;1.70;;
19905;SDS011;10115;50.906;4.438;2022-08-24T16:04:49;2.28;;;1.80;;
19905;SDS011;10115;50.906;4.438;2022-08-24T16:07:23;2.80;;;2.60;;
19905;SDS011;10115;50.906;4.438;2022-08-24T16:10:11;2.58;;;1.67;;
19905;SDS011;10115;50.906;4.438;2022-08-24T16:12:37;1.90;;;1.80;;
19905;SDS011;10115;50.906;4.438;2022-08-24T16:15:08;4.53;;;1.80;;
19905;SDS011;10115;50.906;4.438;2022-08-24T16:17:40;1.30;;;1.30;;
19905;SDS011;10115;50.906;4.438;2022-08-24T16:20:23;2.97;;;1.70;;
19905;SDS011;10115;50.906;4.438;2022-08-24T16:22:57;1.77;;;1.50;;
19905;SDS011;10115;50.906;4.438;2022-08-24T16:25:26;2.95;;;1.83;;
19905;SDS011;10115;50.906;4.438;2022-08-24T16:30:57;1.60;;;1.50;;
19905;SDS011;10115;50.906;4.438;2022-08-24T16:35:57;2.70;;;1.58;;
19905;SDS011;10115;50.906;4.438;2022-08-24T16:38:25;1.95;;;1.60;;
19905;SDS011;10115;50.906;4.438;2022-08-24T16:40:52;1.80;;;1.70;;
19905;SDS011;10115;50.906;4.438;2022-08-24T16:43:18;1.73;;;1.63;;
19905;SDS011;10115;50.906;4.438;2022-08-24T16:45:43;1.33;;;1.30;;
19905;SDS011;10115;50.906;4.438;2022-08-24T16:48:10;1.70;;;1.60;;
19905;SDS011;10115;50.906;4.438;2022-08-24T16:50:36;8.75;;;1.55;;
19905;SDS011;10115;50.906;4.438;2022-08-24T16:53:02;3.70;;;1.65;;
19905;SDS011;10115;50.906;4.438;2022-08-24T16:55:27;2.38;;;1.60;;
19905;SDS011;10115;50.906;4.438;2022-08-24T16:57:53;1.70;;;1.60;;
19905;SDS011;10115;50.906;4.438;2022-08-24T17:00:20;2.03;;;1.48;;
19905;SDS011;10115;50.906;4.438;2022-08-24T17:02:46;1.48;;;1.38;;
19905;SDS011;10115;50.906;4.438;2022-08-24T17:05:13;2.80;;;1.50;;
19905;SDS011;10115;50.906;4.438;2022-08-24T17:07:40;1.90;;;1.80;;
19905;SDS011;10115;50.906;4.438;2022-08-24T17:10:07;1.65;;;1.55;;
19905;SDS011;10115;50.906;4.438;2022-08-24T17:12:34;3.67;;;1.70;;
19905;SDS011;10115;50.906;4.438;2022-08-24T17:15:04;1.67;;;1.58;;
19905;SDS011;10115;50.906;4.438;2022-08-24T17:17:32;2.53;;;1.90;;
19905;SDS011;10115;50.906;4.438;2022-08-24T17:19:58;4.38;;;1.52;;
19905;SDS011;10115;50.906;4.438;2022-08-24T17:22:24;5.75;;;1.40;;
19905;SDS011;10115;50.906;4.438;2022-08-24T17:24:50;3.83;;;2.08;;
19905;SDS011;10115;50.906;4.438;2022-08-24T17:27:17;1.77;;;1.67;;
19905;SDS011;10115;50.906;4.438;2022-08-24T17:29:45;2.38;;;2.10;;
19905;SDS011;10115;50.906;4.438;2022-08-24T17:32:11;2.47;;;2.03;;
19905;SDS011;10115;50.906;4.438;2022-08-24T17:34:38;2.58;;;2.35;;
19905;SDS011;10115;50.906;4.438;2022-08-24T17:37:05;4.25;;;2.35;;
19905;SDS011;10115;50.906;4.438;2022-08-24T17:39:32;3.28;;;2.67;;
19905;SDS011;10115;50.906;4.438;2022-08-24T17:41:58;2.20;;;1.70;;
19905;SDS011;10115;50.906;4.438;2022-08-24T17:44:25;1.80;;;1.70;;
19905;SDS011;10115;50.906;4.438;2022-08-24T17:46:53;2.47;;;1.88;;
19905;SDS011;10115;50.906;4.438;2022-08-24T17:49:22;1.58;;;1.48;;
19905;SDS011;10115;50.906;4.438;2022-08-24T17:51:48;2.10;;;1.98;;
19905;SDS011;10115;50.906;4.438;2022-08-24T17:54:15;2.28;;;2.10;;
19905;SDS011;10115;50.906;4.438;2022-08-24T17:56:42;6.10;;;2.20;;
19905;SDS011;10115;50.906;4.438;2022-08-24T17:59:11;2.70;;;2.17;;
19905;SDS011;10115;50.906;4.438;2022-08-24T18:01:44;4.85;;;2.45;;
19905;SDS011;10115;50.906;4.438;2022-08-24T18:04:11;2.03;;;1.92;;
19905;SDS011;10115;50.906;4.438;2022-08-24T18:06:38;2.45;;;2.25;;
19905;SDS011;10115;50.906;4.438;2022-08-24T18:09:05;2.15;;;1.70;;
19905;SDS011;10115;50.906;4.438;2022-08-24T18:11:32;1.77;;;1.67;;
19905;SDS011;10115;50.906;4.438;2022-08-24T18:13:58;2.15;;;2.05;;
19905;SDS011;10115;50.906;4.438;2022-08-24T18:16:25;3.92;;;2.53;;
19905;SDS011;10115;50.906;4.438;2022-08-24T18:18:52;10.93;;;2.50;;
19905;SDS011;10115;50.906;4.438;2022-08-24T18:21:19;3.35;;;2.42;;
19905;SDS011;10115;50.906;4.438;2022-08-24T18:23:46;1.88;;;1.77;;
19905;SDS011;10115;50.906;4.438;2022-08-24T18:26:14;3.40;;;2.50;;
19905;SDS011;10115;50.906;4.438;2022-08-24T18:28:45;5.25;;;2.63;;
19905;SDS011;10115;50.906;4.438;2022-08-24T18:31:11;2.65;;;2.45;;
19905;SDS011;10115;50.906;4.438;2022-08-24T18:33:38;2.35;;;2.25;;
19905;SDS011;10115;50.906;4.438;2022-08-24T18:36:03;2.80;;;2.10;;
19905;SDS011;10115;50.906;4.438;2022-08-24T18:38:29;2.33;;;2.13;;
19905;SDS011;10115;50.906;4.438;2022-08-24T18:40:55;2.30;;;2.10;;
19905;SDS011;10115;50.906;4.438;2022-08-24T18:43:22;2.47;;;2.28;;
19905;SDS011;10115;50.906;4.438;2022-08-24T18:45:48;3.08;;;2.45;;
19905;SDS011;10115;50.906;4.438;2022-08-24T18:48:14;1.88;;;1.77;;
19905;SDS011;10115;50.906;4.438;2022-08-24T18:50:40;2.47;;;2.00;;
19905;SDS011;10115;50.906;4.438;2022-08-24T18:53:05;2.28;;;2.08;;